Impacts TAF Board INFO
FOR SITUATIONAL AWARENESS. NOT TO BE USED FOR FLIGHT PLANNING PURPOSES.
IDs:

KLGA - New York/La Guardia, NY, US

Issued at 1930 UTC 21 Jul 2017
Updated at 2035 UTC 21 Jul 2017
Potential Impact None Slight Moderate High
Time1951Z 21/21Z 21/22Z 21/23Z 22/00Z 22/01Z 22/02Z 22/03Z 22/04Z 22/05Z 22/06Z 22/07Z 22/08Z 22/09Z>>
Type OBS PRVL PRVL PRVL PRVL PRVL PRVL PRVL PRVL PRVL PRVL PRVL PRVL PRVL
VIS 10 >6 >6 >6 >6 >6 >6 >6 >6 >6 >6 >6 >6 >6
CIG 250 -- -- -- -- -- -- -- -- -- -- -- -- --
Cover BKN FEW FEW FEW FEW FEW FEW FEW FEW FEW FEW SCT SCT SCT
FltCat VFR VFR VFR VFR VFR VFR VFR VFR VFR VFR VFR VFR VFR VFR
WX -- -- -- -- -- -- -- -- -- -- -- -- -- --
WDir 290 290 290 280 280 280 230 230 230 230 230 350 350 350
WSpd 14 10 10 8 8 8 5 5 5 5 5 5 5 5
WGst 19 16 16 -- -- -- -- -- -- -- -- -- -- --

Raw TAF
KLGA 211930Z 2120/2218 29010G16KT P6SM FEW050
  FM212300 28008KT P6SM FEW060
  FM220200 23005KT P6SM FEW060
  FM220700 35005KT P6SM SCT060
  FM221200 05005KT P6SM FEW060


Raw METAR
KLGA 211951Z 29014G19KT 10SM FEW050 BKN250 34/17 A2985 RMK AO2 SLP109 T03390172
KLGA 211851Z 29011G15KT 10SM FEW050 BKN250 33/18 A2985 RMK AO2 SLP109 T03330178
KLGA 211751Z 32011KT 10SM FEW050 BKN250 32/19 A2987 RMK AO2 SLP114 T03220194 10328 20267 56013

METAR Board
Radar Display
Forecast Discussion

FOR SITUATIONAL AWARENESS. NOT TO BE USED FOR FLIGHT PLANNING PURPOSES.